Time;durP1;ratioP1;P1;durP2;ratioP2;P2;SDS_P1;SDS_P2;PMS_P1;PMS_P2;Temp;Humidity;BMP_temperature;BMP_pressure;BME280_temperature;BME280_humidity;BME280_pressure;Samples;Min_cycle;Max_cycle;Signal;HPM_P1;HPM_P2
2023/12/22 00:00:30;;;;;;;5.17;1.70;;;4.60;68.60;;;;;;5033735;28;20183;-85
2023/12/22 00:02:55;;;;;;;7.00;1.87;;;4.60;51.30;;;;;;5033799;28;20204;-86
2023/12/22 00:05:21;;;;;;;7.33;2.07;;;4.60;90.90;;;;;;5034160;28;20620;-85
2023/12/22 00:07:46;;;;;;;7.87;2.00;;;4.60;99.90;;;;;;5051818;28;20169;-85
2023/12/22 00:10:12;;;;;;;6.93;1.83;;;4.60;99.90;;;;;;5033721;28;20174;-85
2023/12/22 00:12:38;;;;;;;8.77;2.40;;;4.60;99.90;;;;;;5051826;28;20186;-86
2023/12/22 00:15:05;;;;;;;5.37;1.53;;;4.70;99.90;;;;;;5033793;28;20188;-85
2023/12/22 00:17:31;;;;;;;5.77;1.73;;;4.70;99.90;;;;;;5033743;28;20228;-85
2023/12/22 00:19:58;;;;;;;7.97;1.90;;;4.70;99.90;;;;;;5033769;28;20594;-85
2023/12/22 00:22:25;;;;;;;7.33;2.30;;;4.70;99.90;;;;;;5051587;28;20201;-85
2023/12/22 00:24:51;;;;;;;6.80;2.00;;;4.70;99.90;;;;;;5051522;28;20268;-87
2023/12/22 00:27:16;;;;;;;9.07;1.93;;;4.70;99.90;;;;;;5033603;28;20182;-85
2023/12/22 00:29:42;;;;;;;8.20;2.10;;;4.70;99.90;;;;;;5033637;28;20655;-85
2023/12/22 00:32:09;;;;;;;7.63;2.13;;;4.70;99.90;;;;;;5033829;28;20188;-85
2023/12/22 00:34:35;;;;;;;4.80;1.40;;;4.70;99.90;;;;;;5033838;28;20244;-85
2023/12/22 00:37:01;;;;;;;6.17;2.00;;;4.70;99.90;;;;;;5051514;28;20205;-86
2023/12/22 00:39:27;;;;;;;9.23;2.37;;;4.70;99.90;;;;;;5033675;28;20181;-85
2023/12/22 00:41:53;;;;;;;4.23;1.53;;;4.70;99.90;;;;;;5051233;28;20216;-85
2023/12/22 00:44:18;;;;;;;2.80;1.30;;;4.70;99.90;;;;;;5051307;28;20284;-85
2023/12/22 00:46:44;;;;;;;6.53;1.60;;;4.70;99.90;;;;;;5033439;28;20189;-85
2023/12/22 00:49:09;;;;;;;9.00;1.80;;;4.70;99.90;;;;;;5051447;28;20162;-86
2023/12/22 00:51:35;;;;;;;5.17;1.67;;;4.70;99.90;;;;;;5033308;28;20243;-85
2023/12/22 00:54:00;;;;;;;3.10;1.07;;;4.70;99.90;;;;;;5033736;28;20200;-86
2023/12/22 00:56:26;;;;;;;5.40;1.60;;;4.70;99.90;;;;;;5033679;28;20182;-86
2023/12/22 00:58:51;;;;;;;5.80;1.40;;;4.70;99.90;;;;;;5051261;28;20212;-87
2023/12/22 01:01:17;;;;;;;5.40;1.53;;;4.70;99.90;;;;;;5052595;28;20220;-85
2023/12/22 01:03:43;;;;;;;2.17;1.17;;;4.70;99.90;;;;;;5036998;28;20173;-86
2023/12/22 01:06:08;;;;;;;1.70;1.23;;;4.70;99.90;;;;;;5054731;28;20244;-85
2023/12/22 01:08:36;;;;;;;3.67;1.63;;;4.70;99.90;;;;;;5036808;28;20170;-87
2023/12/22 01:11:01;;;;;;;4.23;1.23;;;4.80;99.90;;;;;;5036823;28;20193;-85
2023/12/22 01:13:27;;;;;;;1.00;0.63;;;4.70;99.90;;;;;;5054664;28;20566;-85
2023/12/22 01:15:52;;;;;;;1.90;0.97;;;4.80;99.90;;;;;;5054507;28;20175;-85
2023/12/22 01:18:18;;;;;;;2.43;1.30;;;4.70;99.90;;;;;;5054608;28;20170;-86
2023/12/22 01:20:43;;;;;;;3.27;1.10;;;4.70;99.90;;;;;;5036420;28;20174;-85
2023/12/22 01:23:09;;;;;;;3.40;1.13;;;4.60;99.90;;;;;;5036634;28;20232;-85
2023/12/22 01:25:35;;;;;;;2.63;1.20;;;4.50;99.90;;;;;;5054428;28;20708;-86
2023/12/22 01:28:00;;;;;;;5.47;1.20;;;4.50;99.90;;;;;;5036510;28;20181;-85
2023/12/22 01:30:26;;;;;;;2.53;1.13;;;4.50;99.90;;;;;;5054181;28;20170;-85
2023/12/22 01:32:51;;;;;;;4.73;0.80;;;4.50;1.00;;;;;;5054396;28;20201;-85
2023/12/22 01:35:17;;;;;;;2.87;0.90;;;4.50;1.00;;;;;;5054262;28;20184;-85
2023/12/22 01:37:42;;;;;;;2.00;1.30;;;4.50;1.00;;;;;;5054292;28;20193;-86
2023/12/22 01:40:08;;;;;;;3.40;1.33;;;4.40;1.00;;;;;;5036104;28;20177;-86
2023/12/22 01:42:34;;;;;;;3.93;1.53;;;4.40;1.00;;;;;;5053948;28;20213;-85
2023/12/22 01:44:59;;;;;;;4.20;1.30;;;4.40;1.00;;;;;;5053907;28;20204;-85
2023/12/22 01:47:25;;;;;;;3.00;1.37;;;4.40;1.00;;;;;;5036350;28;20169;-86
2023/12/22 01:49:52;;;;;;;2.57;1.13;;;4.40;1.00;;;;;;5031740;28;20175;-84
2023/12/22 01:52:18;;;;;;;3.63;1.63;;;4.40;1.00;;;;;;5034032;28;20233;-85
2023/12/22 01:54:44;;;;;;;2.93;1.23;;;4.40;1.00;;;;;;5034414;28;20198;-85
2023/12/22 01:57:12;;;;;;;4.17;1.10;;;4.40;1.00;;;;;;5034410;28;20276;-85
2023/12/22 01:59:38;;;;;;;3.63;1.40;;;4.30;1.00;;;;;;5016614;28;20232;-85
2023/12/22 02:02:04;;;;;;;4.13;1.40;;;4.30;1.00;;;;;;5016585;28;20206;-85
2023/12/22 02:04:31;;;;;;;2.73;1.10;;;4.30;1.00;;;;;;5016639;28;20228;-85
2023/12/22 02:07:02;;;;;;;3.33;1.10;;;4.40;1.00;;;;;;5016641;28;20182;-85
2023/12/22 02:09:27;;;;;;;2.97;0.87;;;4.30;1.00;;;;;;5016604;28;20217;-85
2023/12/22 02:11:53;;;;;;;1.90;1.03;;;4.20;1.00;;;;;;5033647;28;20198;-85
2023/12/22 02:14:19;;;;;;;2.00;1.10;;;4.20;1.00;;;;;;5033945;28;20174;-85
2023/12/22 02:17:11;;;;;;;3.47;1.13;;;4.20;1.00;;;;;;5016427;28;20185;-85
2023/12/22 02:19:45;;;;;;;3.90;1.43;;;4.10;1.00;;;;;;5033977;28;20173;-85
2023/12/22 02:22:12;;;;;;;3.03;0.90;;;4.10;1.00;;;;;;5015968;28;20194;-85
2023/12/22 02:24:38;;;;;;;2.40;1.00;;;4.10;1.00;;;;;;5016042;28;20252;-85
2023/12/22 02:27:23;;;;;;;1.27;0.83;;;4.10;1.00;;;;;;5016377;28;20289;-85
2023/12/22 02:29:57;;;;;;;2.77;1.00;;;4.10;1.00;;;;;;5033699;28;20159;-86
2023/12/22 02:32:29;;;;;;;3.77;1.37;;;4.10;1.00;;;;;;5016060;28;20190;-85
2023/12/22 02:34:57;;;;;;;5.57;1.40;;;4.10;1.00;;;;;;5015997;28;20189;-85
2023/12/22 02:37:24;;;;;;;3.97;1.33;;;4.10;1.00;;;;;;5016011;28;20179;-85
2023/12/22 02:39:52;;;;;;;6.23;1.10;;;4.10;1.00;;;;;;5015892;28;20184;-85
2023/12/22 02:42:19;;;;;;;4.07;1.10;;;4.10;1.00;;;;;;5086820;22;20240;-83
2023/12/22 02:44:45;;;;;;;4.00;1.30;;;4.10;1.00;;;;;;5052852;28;20551;-83
2023/12/22 02:47:11;;;;;;;3.80;1.30;;;4.00;1.00;;;;;;5051950;28;20227;-83
2023/12/22 02:49:36;;;;;;;4.07;1.20;;;4.10;1.00;;;;;;5051481;28;20544;-82
2023/12/22 02:52:02;;;;;;;3.70;1.00;;;4.00;1.00;;;;;;5051810;28;20197;-82
2023/12/22 02:54:29;;;;;;;4.43;1.13;;;4.10;1.00;;;;;;5051679;28;20625;-82
2023/12/22 02:56:55;;;;;;;2.27;1.20;;;4.10;1.00;;;;;;5051442;28;20180;-83
2023/12/22 02:59:20;;;;;;;3.93;1.90;;;4.10;1.00;;;;;;5052589;28;20239;-83
2023/12/22 03:01:46;;;;;;;2.87;0.90;;;4.10;4.30;;;;;;5052253;28;20198;-82
2023/12/22 03:04:12;;;;;;;3.13;1.00;;;4.10;15.70;;;;;;5051186;28;20204;-82
2023/12/22 03:06:37;;;;;;;8.03;1.97;;;4.10;31.50;;;;;;5052769;28;20181;-83
2023/12/22 03:09:03;;;;;;;3.17;0.77;;;4.10;35.60;;;;;;5052440;28;20188;-82
2023/12/22 03:11:29;;;;;;;3.30;1.30;;;4.10;7.80;;;;;;5052378;28;20307;-82
2023/12/22 03:13:54;;;;;;;3.27;1.20;;;4.20;25.40;;;;;;5052496;28;20174;-82
2023/12/22 03:16:20;;;;;;;5.63;1.47;;;4.10;53.90;;;;;;5052274;28;20227;-83
2023/12/22 03:18:45;;;;;;;2.50;0.93;;;4.10;92.50;;;;;;5051023;28;20173;-82
2023/12/22 03:21:20;;;;;;;3.60;1.40;;;4.10;29.40;;;;;;5052340;28;20185;-83
2023/12/22 03:23:46;;;;;;;3.33;1.10;;;4.20;1.00;;;;;;5051510;28;20641;-83
2023/12/22 03:26:11;;;;;;;4.17;1.10;;;4.20;1.00;;;;;;5050695;28;20178;-82
2023/12/22 03:28:38;;;;;;;3.77;1.10;;;4.20;1.00;;;;;;5050835;28;20176;-83
2023/12/22 03:31:03;;;;;;;2.73;0.90;;;4.20;1.00;;;;;;5051726;28;20272;-82
2023/12/22 03:33:29;;;;;;;3.63;1.10;;;4.20;1.00;;;;;;5050667;28;20313;-83
2023/12/22 03:35:55;;;;;;;3.67;1.10;;;4.20;1.00;;;;;;5052441;28;20642;-83
2023/12/22 03:38:20;;;;;;;3.13;1.30;;;4.20;1.00;;;;;;5050990;28;20173;-83
2023/12/22 03:40:46;;;;;;;4.73;1.33;;;4.20;1.00;;;;;;5050662;28;20185;-82
2023/12/22 03:43:11;;;;;;;5.00;1.10;;;4.30;1.00;;;;;;5050701;28;20223;-82
2023/12/22 03:45:37;;;;;;;2.63;1.20;;;4.30;1.00;;;;;;5050499;28;20201;-83
2023/12/22 03:48:03;;;;;;;3.67;1.13;;;4.30;1.00;;;;;;5050522;28;20740;-84
2023/12/22 03:50:28;;;;;;;6.17;1.53;;;4.20;1.00;;;;;;5050832;28;20231;-83
2023/12/22 03:52:54;;;;;;;2.63;1.00;;;4.20;1.00;;;;;;5050607;28;20197;-83
2023/12/22 03:55:19;;;;;;;2.00;1.07;;;4.20;1.00;;;;;;5050539;28;20177;-83
2023/12/22 03:57:45;;;;;;;4.87;1.37;;;4.20;1.00;;;;;;5050575;28;20181;-83
2023/12/22 04:00:11;;;;;;;1.90;1.00;;;4.20;1.00;;;;;;5051587;28;20170;-82
2023/12/22 04:02:36;;;;;;;4.63;1.13;;;4.20;1.00;;;;;;5050369;28;20205;-82
2023/12/22 04:05:02;;;;;;;5.80;0.87;;;4.20;1.00;;;;;;5050590;28;20202;-82
2023/12/22 04:07:28;;;;;;;4.60;1.20;;;4.20;1.00;;;;;;5051672;28;20740;-82
2023/12/22 04:09:53;;;;;;;2.63;1.00;;;4.20;1.00;;;;;;5051728;28;20169;-82
2023/12/22 04:12:19;;;;;;;7.13;1.37;;;4.10;18.00;;;;;;5051805;28;20574;-83
2023/12/22 04:14:44;;;;;;;1.40;0.60;;;4.10;88.40;;;;;;5051666;28;20573;-82
2023/12/22 04:17:10;;;;;;;2.73;1.50;;;4.10;99.90;;;;;;5051670;28;20173;-82
2023/12/22 04:19:36;;;;;;;2.77;0.97;;;4.00;99.90;;;;;;5050404;28;20188;-82
2023/12/22 04:22:02;;;;;;;3.00;0.83;;;4.00;99.90;;;;;;5050473;28;20224;-82
2023/12/22 04:24:28;;;;;;;2.67;1.10;;;4.00;99.90;;;;;;5051339;28;20612;-82
2023/12/22 04:26:53;;;;;;;3.00;1.10;;;3.90;99.90;;;;;;5050535;28;20227;-83
2023/12/22 04:29:19;;;;;;;3.73;1.40;;;3.90;99.90;;;;;;5050278;28;20173;-79
2023/12/22 04:31:44;;;;;;;3.23;1.27;;;3.90;99.90;;;;;;5051720;28;20276;-79
2023/12/22 04:34:13;;;;;;;3.47;0.90;;;3.90;99.90;;;;;;5051106;28;20184;-79
2023/12/22 04:36:39;;;;;;;2.37;1.00;;;3.90;99.90;;;;;;5054871;28;20169;-82
2023/12/22 04:39:05;;;;;;;3.50;1.00;;;3.90;99.90;;;;;;5054326;28;20188;-79
2023/12/22 04:41:30;;;;;;;2.83;0.80;;;3.90;99.90;;;;;;5055099;28;20197;-82
2023/12/22 04:43:56;;;;;;;3.00;0.83;;;3.90;99.90;;;;;;5055300;28;20185;-83
2023/12/22 04:46:21;;;;;;;2.60;0.90;;;3.80;99.90;;;;;;5053996;28;20169;-83
2023/12/22 04:48:47;;;;;;;2.23;1.37;;;3.80;99.90;;;;;;5055347;28;20173;-82
2023/12/22 04:51:12;;;;;;;1.90;0.70;;;3.80;99.90;;;;;;5055057;28;20180;-82
2023/12/22 04:53:38;;;;;;;3.73;1.00;;;3.70;99.90;;;;;;5053870;28;20181;-83
2023/12/22 04:56:03;;;;;;;3.63;1.20;;;3.70;99.90;;;;;;5055187;28;20182;-83
2023/12/22 04:58:29;;;;;;;2.40;0.90;;;3.70;99.90;;;;;;5053955;28;20188;-83
2023/12/22 05:00:55;;;;;;;0.47;0.47;;;3.70;99.90;;;;;;5054005;28;20196;-82
2023/12/22 05:03:20;;;;;;;2.53;0.83;;;3.60;99.90;;;;;;5053954;28;20240;-82
2023/12/22 05:05:46;;;;;;;3.17;1.33;;;3.60;99.90;;;;;;5055029;28;20201;-82
2023/12/22 05:08:11;;;;;;;3.33;1.03;;;3.60;99.90;;;;;;5053866;28;20593;-83
2023/12/22 05:10:37;;;;;;;4.90;1.00;;;3.60;99.90;;;;;;5054755;28;20180;-83
2023/12/22 05:13:03;;;;;;;3.30;1.03;;;3.60;99.90;;;;;;5054579;28;20197;-82
2023/12/22 05:15:29;;;;;;;3.20;1.00;;;3.60;99.90;;;;;;5054641;28;20181;-83
2023/12/22 05:17:54;;;;;;;1.77;0.80;;;3.60;99.90;;;;;;5053693;28;20197;-83
2023/12/22 05:20:20;;;;;;;3.40;0.83;;;3.60;99.90;;;;;;5053365;28;20172;-82
2023/12/22 05:22:45;;;;;;;4.00;1.57;;;3.50;99.90;;;;;;5054601;28;20216;-82
2023/12/22 05:25:13;;;;;;;3.03;1.00;;;3.60;99.90;;;;;;5053383;28;20212;-83
2023/12/22 05:27:41;;;;;;;1.70;0.90;;;3.60;99.90;;;;;;5053276;28;20253;-83
2023/12/22 05:30:07;;;;;;;1.70;0.97;;;3.50;99.90;;;;;;5052900;28;20664;-82
2023/12/22 05:32:33;;;;;;;2.63;0.83;;;3.50;99.90;;;;;;5054392;28;20186;-82
2023/12/22 05:34:58;;;;;;;2.03;0.77;;;3.50;99.90;;;;;;5054356;28;20184;-82
2023/12/22 05:37:24;;;;;;;0.87;0.70;;;3.50;99.90;;;;;;5054415;28;20182;-83
2023/12/22 05:39:49;;;;;;;1.33;0.40;;;3.50;99.90;;;;;;5052860;28;20185;-82
2023/12/22 05:42:15;;;;;;;1.03;0.67;;;3.50;99.90;;;;;;5054070;28;20220;-82
2023/12/22 05:44:40;;;;;;;1.87;0.77;;;3.50;99.90;;;;;;5052796;28;20204;-82
2023/12/22 05:47:06;;;;;;;2.97;0.83;;;3.50;99.90;;;;;;5051806;28;20264;-81
2023/12/22 05:49:31;;;;;;;1.20;0.53;;;3.60;94.80;;;;;;5053040;28;20181;-82
2023/12/22 05:51:57;;;;;;;3.30;0.80;;;3.60;93.20;;;;;;5052758;28;20215;-82
2023/12/22 05:54:25;;;;;;;2.80;0.83;;;3.60;99.30;;;;;;5053826;28;20176;-82
2023/12/22 05:56:51;;;;;;;2.33;0.83;;;3.60;99.90;;;;;;5052731;28;20178;-82
2023/12/22 05:59:17;;;;;;;0.57;0.37;;;3.70;91.60;;;;;;5054085;28;20264;-82
2023/12/22 06:01:43;;;;;;;3.27;0.73;;;3.70;98.20;;;;;;5054008;28;20236;-83
2023/12/22 06:04:08;;;;;;;3.33;1.63;;;3.80;99.90;;;;;;5052425;28;20201;-82
2023/12/22 06:06:35;;;;;;;2.53;0.67;;;3.80;99.90;;;;;;5052492;28;20185;-81
2023/12/22 06:09:01;;;;;;;1.30;0.77;;;3.80;99.90;;;;;;5053731;28;20173;-82
2023/12/22 06:11:26;;;;;;;2.37;0.87;;;3.70;99.90;;;;;;5052099;28;20201;-83
2023/12/22 06:13:52;;;;;;;2.33;0.87;;;3.70;99.90;;;;;;5052392;28;20208;-83
2023/12/22 06:16:18;;;;;;;3.30;1.00;;;3.60;99.90;;;;;;5053724;28;20178;-83
2023/12/22 06:18:44;;;;;;;3.57;1.00;;;3.60;99.90;;;;;;5053621;28;20180;-82
2023/12/22 06:21:10;;;;;;;1.93;0.60;;;3.50;99.90;;;;;;5053236;28;20178;-83
2023/12/22 06:23:36;;;;;;;3.97;1.60;;;3.40;99.90;;;;;;5051107;28;20500;-83
2023/12/22 06:26:07;;;;;;;2.33;1.03;;;3.30;99.90;;;;;;5053184;28;20555;-83
2023/12/22 06:28:33;;;;;;;4.50;1.10;;;3.40;99.90;;;;;;5052117;28;20188;-84
2023/12/22 06:30:58;;;;;;;4.37;1.77;;;3.40;99.90;;;;;;5051791;28;20180;-83
2023/12/22 06:33:24;;;;;;;2.77;0.97;;;3.40;99.90;;;;;;5051830;28;20193;-82
2023/12/22 06:35:53;;;;;;;3.47;0.87;;;3.40;99.90;;;;;;5052112;28;20188;-82
2023/12/22 06:38:19;;;;;;;1.83;1.10;;;3.50;99.90;;;;;;5052074;28;20188;-82
2023/12/22 06:40:46;;;;;;;1.00;0.60;;;3.50;99.90;;;;;;5051653;28;20642;-83
2023/12/22 06:43:12;;;;;;;8.27;1.43;;;3.50;99.90;;;;;;5052080;28;20224;-83
2023/12/22 06:45:39;;;;;;;7.87;4.03;;;3.50;99.90;;;;;;5051679;28;20213;-82
2023/12/22 06:48:06;;;;;;;1.83;1.43;;;3.50;99.90;;;;;;5052997;28;20178;-82
2023/12/22 06:50:31;;;;;;;2.77;1.23;;;3.60;99.90;;;;;;5052636;28;20177;-84
2023/12/22 06:52:57;;;;;;;3.27;1.40;;;3.50;99.90;;;;;;5052809;28;20197;-83
2023/12/22 06:55:23;;;;;;;1.57;1.33;;;3.50;99.90;;;;;;5052749;28;20665;-83
2023/12/22 06:57:49;;;;;;;1.50;0.90;;;3.50;99.90;;;;;;5052815;28;20209;-83
2023/12/22 07:00:15;;;;;;;1.20;0.70;;;3.50;99.90;;;;;;5052524;28;20180;-83
2023/12/22 07:02:40;;;;;;;1.63;1.10;;;3.50;99.90;;;;;;5052885;28;20685;-83
2023/12/22 07:05:09;;;;;;;3.57;2.37;;;3.50;99.90;;;;;;5051400;28;20307;-83
2023/12/22 07:07:35;;;;;;;2.97;1.33;;;3.50;99.90;;;;;;5051354;28;20176;-83
2023/12/22 07:10:01;;;;;;;5.67;2.67;;;3.50;99.90;;;;;;5051036;28;20664;-84
2023/12/22 07:12:26;;;;;;;4.43;2.90;;;3.40;99.90;;;;;;5052704;28;20193;-84
2023/12/22 07:14:52;;;;;;;4.50;2.50;;;3.40;99.90;;;;;;5053178;28;20188;-85
2023/12/22 07:17:17;;;;;;;5.30;2.47;;;3.40;99.90;;;;;;5051886;28;20181;-84
2023/12/22 07:19:43;;;;;;;2.43;1.60;;;3.40;99.90;;;;;;5052536;28;20185;-82
2023/12/22 07:22:09;;;;;;;4.20;2.10;;;3.50;99.90;;;;;;5051066;28;20194;-82
2023/12/22 07:24:34;;;;;;;3.77;1.63;;;3.50;99.90;;;;;;5050737;28;20590;-85
2023/12/22 07:27:00;;;;;;;4.07;2.00;;;3.50;99.90;;;;;;5051089;28;20184;-84
2023/12/22 07:29:26;;;;;;;3.07;1.33;;;3.50;99.90;;;;;;5051041;28;20177;-83
2023/12/22 07:31:51;;;;;;;2.77;1.60;;;3.50;99.90;;;;;;5051031;28;20258;-83
2023/12/22 07:34:18;;;;;;;1.77;1.60;;;3.50;99.90;;;;;;5052275;28;20185;-84
2023/12/22 07:36:44;;;;;;;5.50;1.33;;;3.60;99.90;;;;;;5052112;28;20181;-83
2023/12/22 07:39:10;;;;;;;3.10;1.43;;;3.60;99.90;;;;;;5050555;28;20207;-82
2023/12/22 07:41:36;;;;;;;2.40;1.10;;;3.70;99.90;;;;;;5050585;28;20212;-82
2023/12/22 07:44:02;;;;;;;2.97;1.43;;;3.70;99.90;;;;;;5050710;28;20177;-81
2023/12/22 07:46:28;;;;;;;3.03;1.40;;;3.70;99.90;;;;;;5050337;28;20166;-81
2023/12/22 07:48:54;;;;;;;3.07;1.47;;;3.80;99.90;;;;;;5050882;28;20165;-81
2023/12/22 07:51:20;;;;;;;4.67;1.70;;;3.90;99.90;;;;;;5048694;28;20263;-82
2023/12/22 07:53:46;;;;;;;5.93;1.40;;;3.90;99.90;;;;;;5051556;28;20173;-81
2023/12/22 07:56:11;;;;;;;3.57;1.70;;;3.90;99.90;;;;;;5052124;28;20227;-83
2023/12/22 07:58:38;;;;;;;3.70;1.20;;;4.00;99.90;;;;;;5050858;28;20180;-81
2023/12/22 08:01:04;;;;;;;2.20;1.30;;;4.00;99.90;;;;;;5052022;28;20531;-81
2023/12/22 08:03:29;;;;;;;2.27;1.33;;;4.00;99.90;;;;;;5050874;28;20190;-81
2023/12/22 08:05:55;;;;;;;2.83;1.20;;;4.00;99.90;;;;;;5052239;28;20200;-81
2023/12/22 08:08:21;;;;;;;3.97;1.30;;;4.00;99.90;;;;;;5052168;28;20173;-81
2023/12/22 08:10:46;;;;;;;2.30;1.03;;;4.10;99.90;;;;;;5051845;28;20177;-82
2023/12/22 08:13:12;;;;;;;3.47;1.33;;;4.10;99.90;;;;;;5054806;28;20191;-82
2023/12/22 08:15:38;;;;;;;3.13;0.90;;;4.20;99.90;;;;;;5054854;28;20170;-81
2023/12/22 08:18:03;;;;;;;2.13;1.20;;;4.20;99.90;;;;;;5055904;28;20177;-81
2023/12/22 08:20:29;;;;;;;2.30;1.00;;;4.30;99.90;;;;;;5055851;28;20174;-82
2023/12/22 08:22:55;;;;;;;3.07;1.03;;;4.30;99.90;;;;;;5054396;28;20280;-81
2023/12/22 08:25:20;;;;;;;3.40;1.27;;;4.40;99.90;;;;;;5055989;28;20202;-82
2023/12/22 08:27:46;;;;;;;3.90;1.10;;;4.40;99.90;;;;;;5056117;28;20174;-80
2023/12/22 08:30:12;;;;;;;2.40;1.23;;;4.40;99.90;;;;;;5054635;28;20252;-81
2023/12/22 08:32:38;;;;;;;4.57;2.50;;;4.40;99.90;;;;;;5054291;28;20288;-82
2023/12/22 08:35:04;;;;;;;4.07;2.13;;;4.40;99.90;;;;;;5055741;28;20174;-82
2023/12/22 08:37:30;;;;;;;2.53;1.33;;;4.50;99.90;;;;;;5055596;28;20177;-82
2023/12/22 08:39:57;;;;;;;3.00;1.23;;;4.50;99.90;;;;;;5054119;28;20174;-81
2023/12/22 08:42:23;;;;;;;6.63;1.83;;;4.50;99.90;;;;;;5111870;22;20230;-82
2023/12/22 08:44:49;;;;;;;4.47;1.40;;;4.50;99.90;;;;;;5037489;28;20206;-83
2023/12/22 08:47:15;;;;;;;4.27;1.27;;;4.50;99.90;;;;;;5055365;28;20169;-84
2023/12/22 08:49:41;;;;;;;4.17;1.23;;;4.60;99.90;;;;;;5037627;28;20243;-84
2023/12/22 08:52:07;;;;;;;4.10;1.20;;;4.60;99.90;;;;;;5037244;28;20573;-84
2023/12/22 08:54:34;;;;;;;3.40;1.40;;;4.60;99.90;;;;;;5037461;28;20174;-83
2023/12/22 08:57:00;;;;;;;2.17;1.07;;;4.70;99.90;;;;;;5037485;28;20177;-84
2023/12/22 08:59:26;;;;;;;4.30;1.40;;;4.70;99.90;;;;;;5037263;28;20345;-84
2023/12/22 09:01:51;;;;;;;3.53;1.00;;;4.70;99.90;;;;;;5037210;28;20276;-84
2023/12/22 09:04:17;;;;;;;3.93;1.07;;;4.80;75.60;;;;;;5055109;28;20202;-83
2023/12/22 09:06:43;;;;;;;2.20;0.73;;;4.80;51.40;;;;;;5037114;28;20175;-84
2023/12/22 09:09:11;;;;;;;4.27;1.50;;;4.90;48.30;;;;;;5054921;28;20183;-83
2023/12/22 09:11:36;;;;;;;5.53;1.97;;;4.90;85.70;;;;;;5037175;28;20196;-83
2023/12/22 09:14:04;;;;;;;6.33;1.50;;;4.90;99.90;;;;;;5054846;28;20169;-83
2023/12/22 09:16:29;;;;;;;3.00;1.40;;;4.90;99.90;;;;;;5036817;28;20170;-84
2023/12/22 09:18:55;;;;;;;6.40;1.90;;;4.90;99.90;;;;;;5054821;28;20180;-83
2023/12/22 09:21:21;;;;;;;3.57;1.43;;;4.90;99.90;;;;;;5053766;28;20231;-85
2023/12/22 09:23:47;;;;;;;3.60;1.30;;;4.90;99.90;;;;;;5036848;28;20208;-85
2023/12/22 09:26:13;;;;;;;4.17;1.57;;;4.90;99.90;;;;;;5038998;28;20304;-85
2023/12/22 09:28:39;;;;;;;4.23;1.20;;;5.00;99.90;;;;;;5050021;28;20686;-81
2023/12/22 09:31:07;;;;;;;5.60;2.20;;;5.00;99.90;;;;;;5052418;28;20183;-83
2023/12/22 09:33:32;;;;;;;10.13;4.03;;;5.00;99.90;;;;;;5036745;28;20256;-84
2023/12/22 09:35:58;;;;;;;4.40;1.97;;;5.00;99.90;;;;;;5054739;28;20184;-86
2023/12/22 09:38:23;;;;;;;4.30;1.43;;;5.00;99.90;;;;;;5054116;28;20178;-85
2023/12/22 09:40:52;;;;;;;4.37;1.50;;;5.00;99.90;;;;;;5054281;28;20184;-82
2023/12/22 09:43:19;;;;;;;3.33;1.07;;;5.10;99.90;;;;;;5036337;28;20305;-83
2023/12/22 09:45:49;;;;;;;4.27;1.47;;;5.10;99.90;;;;;;5036462;28;20210;-81
2023/12/22 09:48:17;;;;;;;6.17;1.57;;;5.00;99.90;;;;;;5054386;28;20180;-83
2023/12/22 09:50:44;;;;;;;3.93;1.40;;;5.00;99.90;;;;;;5054326;28;20197;-83
2023/12/22 09:53:11;;;;;;;4.43;1.50;;;5.10;99.90;;;;;;5054384;28;20194;-82
2023/12/22 09:55:38;;;;;;;3.00;2.00;;;5.10;99.90;;;;;;5037066;28;20182;-83
2023/12/22 09:58:06;;;;;;;5.20;1.50;;;5.10;99.90;;;;;;5053947;28;20189;-83
2023/12/22 10:00:32;;;;;;;9.90;4.07;;;5.10;99.90;;;;;;5054010;28;20186;-84
2023/12/22 10:02:58;;;;;;;2.63;1.50;;;5.00;99.90;;;;;;5053539;28;20332;-83
2023/12/22 10:05:23;;;;;;;4.17;2.10;;;4.90;99.90;;;;;;5053810;28;20289;-83
2023/12/22 10:07:50;;;;;;;3.27;1.60;;;4.90;99.90;;;;;;5053865;28;20175;-84
2023/12/22 10:10:16;;;;;;;4.97;1.90;;;4.90;99.90;;;;;;5035898;28;20265;-83
2023/12/22 10:12:44;;;;;;;5.03;2.00;;;4.90;99.90;;;;;;5036126;28;20282;-83
2023/12/22 10:15:12;;;;;;;5.00;2.00;;;5.00;99.90;;;;;;5035558;28;20229;-89
2023/12/22 10:17:38;;;;;;;7.60;2.43;;;5.00;99.90;;;;;;5035629;28;20183;-84
2023/12/22 10:20:05;;;;;;;4.50;1.90;;;5.00;99.90;;;;;;5035499;28;20181;-84
2023/12/22 10:22:30;;;;;;;3.77;2.03;;;5.10;99.90;;;;;;5035940;28;20281;-84
2023/12/22 10:24:56;;;;;;;6.50;3.03;;;5.10;99.90;;;;;;5035680;28;20734;-85
2023/12/22 10:27:24;;;;;;;7.17;3.00;;;5.20;99.90;;;;;;5053435;28;20202;-85
2023/12/22 10:29:54;;;;;;;6.20;2.53;;;5.30;99.90;;;;;;5053098;28;20262;-86
2023/12/22 10:32:21;;;;;;;4.50;2.30;;;5.30;99.90;;;;;;5035433;28;20196;-85
2023/12/22 10:34:47;;;;;;;4.00;2.30;;;5.30;99.90;;;;;;5052460;28;20249;-84
2023/12/22 10:37:15;;;;;;;4.57;1.60;;;5.30;99.90;;;;;;5053084;28;20305;-85
2023/12/22 10:39:41;;;;;;;4.57;2.60;;;5.50;99.90;;;;;;5053227;28;20187;-84
2023/12/22 10:42:07;;;;;;;4.10;2.33;;;5.50;99.90;;;;;;5052962;28;20202;-85
2023/12/22 10:44:32;;;;;;;3.63;1.70;;;5.60;99.90;;;;;;5052886;28;20287;-85
2023/12/22 10:47:00;;;;;;;2.70;1.63;;;5.60;99.90;;;;;;5040738;28;20260;-85
2023/12/22 10:49:25;;;;;;;4.13;2.30;;;5.60;99.90;;;;;;5052917;28;20186;-85
2023/12/22 10:51:52;;;;;;;3.80;1.97;;;5.70;99.90;;;;;;5038245;28;20184;-85
2023/12/22 10:54:18;;;;;;;3.33;1.37;;;5.70;99.90;;;;;;5035324;28;20207;-84
2023/12/22 10:56:44;;;;;;;5.03;1.63;;;5.70;99.90;;;;;;5034941;28;20181;-85
2023/12/22 10:59:09;;;;;;;3.10;1.70;;;5.70;99.90;;;;;;5052943;28;20666;-85
2023/12/22 11:01:38;;;;;;;2.23;1.40;;;5.60;99.90;;;;;;5052566;28;20227;-84
2023/12/22 11:04:07;;;;;;;2.90;1.50;;;5.60;99.90;;;;;;5035172;28;20180;-84
2023/12/22 11:06:37;;;;;;;4.13;1.63;;;5.60;99.90;;;;;;5052448;28;20173;-84
2023/12/22 11:09:08;;;;;;;5.10;1.60;;;5.60;99.90;;;;;;5034996;28;20199;-85
2023/12/22 11:11:35;;;;;;;3.30;1.20;;;5.60;99.90;;;;;;5034839;28;20175;-83
2023/12/22 11:14:01;;;;;;;3.17;1.47;;;5.70;99.90;;;;;;5053080;28;20178;-81
2023/12/22 11:16:33;;;;;;;2.53;1.50;;;5.70;99.90;;;;;;5052846;28;20174;-85
2023/12/22 11:18:59;;;;;;;4.37;1.40;;;5.70;99.90;;;;;;5052523;28;20181;-85
2023/12/22 11:21:25;;;;;;;3.33;1.77;;;5.80;99.90;;;;;;5052418;28;20177;-85
2023/12/22 11:23:52;;;;;;;3.37;1.40;;;5.80;99.90;;;;;;5035312;28;20207;-84
2023/12/22 11:26:19;;;;;;;5.47;2.13;;;5.80;99.90;;;;;;5040602;28;20212;-85
2023/12/22 11:28:49;;;;;;;4.50;1.80;;;5.80;99.90;;;;;;5035328;28;20184;-84
2023/12/22 11:31:15;;;;;;;3.33;1.50;;;5.80;99.90;;;;;;5034491;28;20171;-83
2023/12/22 11:33:49;;;;;;;3.27;1.67;;;5.80;99.90;;;;;;5034332;28;20200;-84
2023/12/22 11:36:16;;;;;;;5.77;1.90;;;5.80;99.90;;;;;;5052247;28;20172;-84
2023/12/22 11:38:44;;;;;;;3.30;1.40;;;5.80;99.90;;;;;;5034352;28;20180;-84
2023/12/22 11:41:13;;;;;;;4.73;1.60;;;5.80;99.90;;;;;;5052227;28;20451;-84
2023/12/22 11:43:40;;;;;;;3.73;1.67;;;5.80;99.90;;;;;;5034326;28;20215;-84
2023/12/22 11:46:06;;;;;;;6.27;1.80;;;5.80;99.90;;;;;;5033444;28;20212;-85
2023/12/22 11:48:32;;;;;;;2.80;1.77;;;5.70;99.90;;;;;;5034331;28;20238;-86
2023/12/22 11:50:58;;;;;;;3.20;1.37;;;5.80;99.90;;;;;;5034008;28;20204;-84
2023/12/22 11:53:25;;;;;;;8.73;1.97;;;5.80;99.90;;;;;;5034216;28;20228;-85
2023/12/22 11:55:59;;;;;;;3.10;1.57;;;5.70;99.90;;;;;;5052312;28;20233;-84
2023/12/22 11:58:38;;;;;;;3.87;1.90;;;5.70;99.90;;;;;;5052223;28;20179;-84
2023/12/22 12:01:06;;;;;;;2.20;1.60;;;5.60;99.90;;;;;;5039236;28;20179;-85
2023/12/22 12:03:32;;;;;;;2.20;1.47;;;5.60;99.90;;;;;;5051732;28;20235;-86
2023/12/22 12:06:13;;;;;;;2.23;1.40;;;5.60;99.90;;;;;;5033890;28;20239;-82
2023/12/22 12:08:39;;;;;;;1.90;1.40;;;5.50;99.90;;;;;;5034266;28;20176;-85
2023/12/22 12:11:06;;;;;;;2.50;1.40;;;5.50;99.90;;;;;;5034129;28;20550;-84
2023/12/22 12:13:36;;;;;;;3.07;1.40;;;5.50;99.90;;;;;;5034073;28;20200;-84
2023/12/22 12:16:06;;;;;;;1.57;1.07;;;5.50;99.90;;;;;;5033965;28;20182;-83
2023/12/22 12:18:33;;;;;;;2.67;1.40;;;5.50;99.90;;;;;;5033802;28;20248;-84
2023/12/22 12:20:59;;;;;;;1.90;1.10;;;5.40;99.90;;;;;;5051702;28;20558;-84
2023/12/22 12:23:26;;;;;;;1.33;1.07;;;5.40;99.90;;;;;;5033876;28;20200;-84
2023/12/22 12:25:53;;;;;;;3.77;1.30;;;5.40;99.90;;;;;;5051671;28;20203;-85
2023/12/22 12:28:26;;;;;;;2.90;1.10;;;5.40;99.90;;;;;;5051553;28;20238;-84
2023/12/22 12:31:02;;;;;;;1.93;1.37;;;5.40;99.90;;;;;;5033983;28;20177;-85
2023/12/22 12:33:28;;;;;;;1.63;1.20;;;5.40;99.90;;;;;;5033684;28;20222;-85
2023/12/22 12:35:59;;;;;;;2.67;1.20;;;5.40;99.90;;;;;;5033550;28;20657;-85
2023/12/22 12:39:03;;;;;;;2.10;1.30;;;5.30;99.90;;;;;;5051527;28;20183;-85
2023/12/22 12:41:34;;;;;;;2.37;1.17;;;5.30;99.90;;;;;;5051336;28;20169;-85
2023/12/22 12:44:02;;;;;;;2.00;1.00;;;5.20;99.90;;;;;;5031374;28;20196;-84
2023/12/22 12:46:38;;;;;;;2.33;1.77;;;5.20;99.90;;;;;;5043980;28;20216;-84
2023/12/22 12:49:08;;;;;;;1.03;0.80;;;5.30;99.90;;;;;;5051329;28;20209;-83
2023/12/22 12:51:42;;;;;;;1.07;0.90;;;5.30;99.90;;;;;;5034543;28;20179;-84
2023/12/22 12:54:09;;;;;;;1.10;0.90;;;5.30;99.90;;;;;;5032698;28;20262;-84